Time;durP1;ratioP1;P1;durP2;ratioP2;P2;SDS_P1;SDS_P2;PMS_P1;PMS_P2;Temp;Humidity;BMP_temperature;BMP_pressure;BME280_temperature;BME280_humidity;BME280_pressure;Samples;Min_cycle;Max_cycle;Signal;HPM_P1;HPM_P2
2021/05/23 00:01:53;;;;;;;0.85;0.60;;;;;;;11.42;67.53;99687.13;10280659;28;20511;-61
2021/05/23 00:06:55;;;;;;;1.83;0.43;;;;;;;11.55;65.78;99678.03;10282064;28;20088;-61
2021/05/23 00:11:56;;;;;;;3.72;0.80;;;;;;;11.63;65.16;99689.66;10293125;28;20729;-61
2021/05/23 00:16:58;;;;;;;3.08;0.50;;;;;;;11.66;65.41;99697.38;10288523;28;20050;-60
2021/05/23 00:22:00;;;;;;;1.60;0.60;;;;;;;11.54;66.24;99697.66;10293144;28;20077;-60
2021/05/23 00:27:02;;;;;;;1.38;0.60;;;;;;;11.49;66.81;99704.25;10297471;28;20422;-61
2021/05/23 00:32:03;;;;;;;2.08;0.77;;;;;;;11.35;67.42;99707.38;10305221;28;20401;-60
2021/05/23 00:37:05;;;;;;;1.65;0.50;;;;;;;11.35;67.89;99703.84;10289499;28;20046;-60
2021/05/23 00:42:09;;;;;;;1.23;0.65;;;;;;;11.43;67.60;99709.31;10283789;28;20149;-60
2021/05/23 00:47:10;;;;;;;1.60;0.80;;;;;;;11.18;68.64;99708.91;10298102;28;20116;-60
2021/05/23 00:52:13;;;;;;;1.48;0.73;;;;;;;11.15;69.17;99701.19;10298793;28;20074;-62
2021/05/23 00:57:14;;;;;;;3.42;0.88;;;;;;;11.12;69.32;99709.47;10293183;28;20050;-61
2021/05/23 01:02:40;;;;;;;1.60;0.50;;;;;;;11.22;69.04;99699.66;10277916;28;20054;-60
2021/05/23 01:07:42;;;;;;;1.17;0.80;;;;;;;11.24;69.04;99711.00;10300654;28;20050;-61
2021/05/23 01:12:52;;;;;;;1.58;0.70;;;;;;;11.13;69.36;99697.84;10296801;28;20140;-61
2021/05/23 01:17:57;;;;;;;2.70;0.80;;;;;;;11.20;68.89;99706.97;10299581;28;20046;-61
2021/05/23 01:23:17;;;;;;;1.23;0.82;;;;;;;11.25;68.76;99707.38;10293787;28;20104;-60
2021/05/23 01:28:19;;;;;;;2.55;1.17;;;;;;;11.24;68.91;99697.69;10297690;28;20260;-60
2021/05/23 01:33:20;;;;;;;2.25;0.90;;;;;;;11.38;68.30;99698.22;10295851;28;20054;-60
2021/05/23 01:38:22;;;;;;;1.40;0.80;;;;;;;11.30;68.76;99707.81;10276615;28;20050;-60
2021/05/23 01:43:24;;;;;;;2.83;0.88;;;;;;;11.29;68.42;99702.63;10295171;28;20050;-61
2021/05/23 01:48:26;;;;;;;2.25;0.80;;;;;;;11.31;68.55;99706.78;10288218;28;20086;-60
2021/05/23 01:53:27;;;;;;;2.33;1.10;;;;;;;11.34;68.42;99719.00;10296381;28;20047;-60
2021/05/23 01:58:29;;;;;;;1.15;0.80;;;;;;;11.25;68.89;99707.38;10294631;28;20156;-62
2021/05/23 02:03:31;;;;;;;2.53;0.82;;;;;;;11.30;68.78;99702.47;10283556;28;20074;-61
2021/05/23 02:08:33;;;;;;;2.42;0.60;;;;;;;11.17;69.17;99701.91;10291474;28;20074;-60
2021/05/23 02:13:38;;;;;;;1.58;0.90;;;;;;;11.08;69.62;99702.75;10304237;28;20054;-60
2021/05/23 02:18:40;;;;;;;2.55;0.90;;;;;;;11.06;69.23;99710.03;10295996;28;20065;-60
2021/05/23 02:23:50;;;;;;;1.50;0.93;;;;;;;11.16;69.66;99710.88;10278758;28;20089;-60
2021/05/23 02:28:53;;;;;;;1.30;0.73;;;;;;;11.29;69.28;99715.94;10291738;28;20142;-60
2021/05/23 02:33:55;;;;;;;2.65;0.80;;;;;;;11.44;68.50;99734.97;10290811;28;20101;-60
2021/05/23 02:38:56;;;;;;;2.38;1.10;;;;;;;11.31;68.19;99728.13;10292754;28;20146;-61
2021/05/23 02:43:58;;;;;;;1.73;1.15;;;;;;;11.41;67.64;99745.91;10293605;28;20042;-60
2021/05/23 02:49:00;;;;;;;2.28;0.90;;;;;;;11.35;67.39;99757.13;10275593;28;20046;-61
2021/05/23 02:54:01;;;;;;;4.53;0.90;;;;;;;11.31;68.21;99756.59;10301376;28;20721;-59
2021/05/23 02:59:04;;;;;;;3.80;1.15;;;;;;;11.39;67.80;99763.88;10302182;28;20046;-60
2021/05/23 03:04:05;;;;;;;1.85;0.70;;;;;;;11.43;67.51;99763.47;10278576;28;20073;-60
2021/05/23 03:09:06;;;;;;;3.70;1.00;;;;;;;11.44;67.68;99773.16;10299087;28;20062;-63
2021/05/23 03:14:08;;;;;;;4.20;1.00;;;;;;;11.40;67.76;99781.56;10299230;28;20086;-61
2021/05/23 03:19:09;;;;;;;4.10;1.17;;;;;;;11.29;68.43;99775.38;10304677;28;20050;-60
2021/05/23 03:24:11;;;;;;;1.65;1.02;;;;;;;11.17;68.88;99789.81;10288235;28;20101;-61
2021/05/23 03:29:12;;;;;;;1.50;0.70;;;;;;;11.21;68.75;99788.53;10285764;28;20102;-60
2021/05/23 03:34:14;;;;;;;2.42;1.08;;;;;;;11.14;69.10;99795.44;10300996;28;21703;-60
2021/05/23 03:39:15;;;;;;;4.75;1.15;;;;;;;11.12;69.49;99805.38;10309159;28;20140;-60
2021/05/23 03:44:17;;;;;;;4.15;1.00;;;;;;;11.02;70.29;99804.50;10305087;28;20603;-63
2021/05/23 03:49:18;;;;;;;1.20;0.93;;;;;;;10.96;70.36;99805.91;10303026;28;20050;-60
2021/05/23 03:54:20;;;;;;;4.75;1.00;;;;;;;10.78;70.70;99814.56;10285499;28;20058;-60
2021/05/23 03:59:21;;;;;;;2.08;0.80;;;;;;;10.65;71.10;99813.94;10291273;28;20407;-60
2021/05/23 04:04:23;;;;;;;2.03;1.00;;;;;;;10.64;71.04;99814.91;10282583;28;20093;-60
2021/05/23 04:09:25;;;;;;;1.45;0.95;;;;;;;10.60;70.96;99821.50;10302986;28;20038;-60
2021/05/23 04:14:26;;;;;;;3.75;1.13;;;;;;;10.51;70.91;99823.16;10298538;28;20050;-60
2021/05/23 04:19:28;;;;;;;2.38;1.15;;;;;;;10.68;70.96;99832.31;10302573;28;20066;-61
2021/05/23 04:24:30;;;;;;;2.85;1.20;;;;;;;10.74;70.74;99849.56;10296821;28;20532;-61
2021/05/23 04:29:33;;;;;;;1.60;0.70;;;;;;;10.82;70.52;99860.38;10298555;28;20059;-60
2021/05/23 04:34:36;;;;;;;3.03;0.98;;;;;;;10.69;69.96;99863.28;10299231;28;20126;-61
2021/05/23 04:39:37;;;;;;;1.92;0.85;;;;;;;10.67;69.92;99856.41;10297842;28;20057;-60
2021/05/23 04:44:39;;;;;;;3.05;0.88;;;;;;;10.82;69.15;99871.03;10298800;28;20077;-60
2021/05/23 04:49:40;;;;;;;3.63;1.60;;;;;;;10.80;70.27;99880.97;10299622;28;20065;-61
2021/05/23 04:54:42;;;;;;;2.55;0.68;;;;;;;10.72;69.16;99888.78;10296851;28;20054;-62
2021/05/23 04:59:44;;;;;;;1.95;1.08;;;;;;;10.82;69.33;99894.16;10298692;28;20066;-60
2021/05/23 05:04:45;;;;;;;2.03;1.25;;;;;;;10.92;68.50;99906.53;10285248;28;20554;-61
2021/05/23 05:09:47;;;;;;;1.23;0.70;;;;;;;11.01;68.11;99910.19;10298630;28;20109;-60
2021/05/23 05:14:48;;;;;;;1.98;0.60;;;;;;;11.25;67.91;99931.16;10301293;28;20447;-63
2021/05/23 05:19:50;;;;;;;1.85;1.33;;;;;;;11.34;66.99;99939.34;10293984;28;20046;-60
2021/05/23 05:24:51;;;;;;;2.38;1.17;;;;;;;11.11;66.67;99936.88;10291855;28;20078;-60
2021/05/23 05:29:54;;;;;;;2.85;0.90;;;;;;;11.04;66.92;99962.38;10290577;28;20070;-59
2021/05/23 05:34:55;;;;;;;2.15;1.25;;;;;;;11.03;66.93;99955.34;10285507;28;20790;-60
2021/05/23 05:39:57;;;;;;;2.20;0.80;;;;;;;11.19;66.74;99954.84;10310207;23;20046;-53
2021/05/23 05:44:58;;;;;;;1.55;0.75;;;;;;;11.15;66.78;99954.25;10294379;28;20104;-55
2021/05/23 05:50:00;;;;;;;2.85;0.93;;;;;;;11.27;66.22;99942.56;10292635;28;20519;-57
2021/05/23 05:55:02;;;;;;;2.10;0.98;;;;;;;11.23;66.47;99961.56;10281430;28;20148;-54
2021/05/23 06:00:05;;;;;;;2.00;0.90;;;;;;;11.39;66.24;99964.56;10275568;28;20054;-54
2021/05/23 06:05:07;;;;;;;0.95;0.77;;;;;;;11.50;65.38;99968.97;10280043;28;20616;-54
2021/05/23 06:10:09;;;;;;;2.58;0.68;;;;;;;11.66;65.05;99979.09;10280436;28;20100;-53
2021/05/23 06:15:11;;;;;;;1.75;0.73;;;;;;;11.61;65.00;99979.50;10279114;28;20050;-58
2021/05/23 06:20:14;;;;;;;0.93;0.80;;;;;;;11.74;64.32;99986.41;10267291;28;20049;-56
2021/05/23 06:25:15;;;;;;;1.77;0.82;;;;;;;11.62;64.36;99988.34;10279385;28;20985;-59
2021/05/23 06:30:17;;;;;;;2.17;0.98;;;;;;;11.75;64.66;99998.78;10259537;28;20065;-61
2021/05/23 06:35:19;;;;;;;3.67;1.35;;;;;;;11.82;64.34;99999.91;10265236;28;20053;-58
2021/05/23 06:40:20;;;;;;;3.00;1.30;;;;;;;12.00;64.22;99998.28;10277681;28;20579;-58
2021/05/23 06:45:22;;;;;;;3.38;0.73;;;;;;;12.22;63.24;100011.47;10278537;28;20050;-55
2021/05/23 06:50:23;;;;;;;3.45;1.15;;;;;;;12.38;62.93;100011.75;10275904;28;20638;-54
2021/05/23 06:55:25;;;;;;;3.00;1.30;;;;;;;12.26;62.59;100016.41;10279258;28;20050;-55
2021/05/23 07:00:26;;;;;;;2.05;1.00;;;;;;;12.32;62.69;100015.84;10277061;28;20106;-62
2021/05/23 07:05:28;;;;;;;2.33;0.95;;;;;;;12.52;62.54;100024.69;10279021;28;20141;-60
2021/05/23 07:10:29;;;;;;;1.20;1.10;;;;;;;12.60;61.10;100025.81;10278887;28;20042;-60
2021/05/23 07:15:31;;;;;;;1.70;1.10;;;;;;;12.73;59.75;100010.34;10277225;28;20109;-55
2021/05/23 07:20:32;;;;;;;4.43;1.38;;;;;;;13.01;59.56;100023.75;10278236;28;22902;-54
2021/05/23 07:25:34;;;;;;;2.42;0.80;;;;;;;13.09;58.34;100027.41;10275768;28;20805;-56
2021/05/23 07:30:35;;;;;;;1.83;0.98;;;;;;;13.03;59.18;100027.97;10277847;28;20068;-53
2021/05/23 07:35:37;;;;;;;1.63;0.70;;;;;;;13.41;56.04;100036.88;10275599;28;20185;-59
2021/05/23 07:40:39;;;;;;;1.02;0.80;;;;;;;13.53;55.66;100037.53;10275273;28;20113;-60
2021/05/23 07:45:41;;;;;;;1.77;0.70;;;;;;;13.61;55.22;100048.31;10274828;28;20050;-60
2021/05/23 07:50:42;;;;;;;1.77;0.57;;;;;;;13.72;54.59;100054.47;10276903;28;20217;-56
2021/05/23 07:55:45;;;;;;;1.77;0.80;;;;;;;13.68;54.23;100031.69;10265059;28;20590;-58
2021/05/23 08:00:46;;;;;;;1.10;0.52;;;;;;;13.82;53.20;100051.75;10279427;28;20104;-58
2021/05/23 08:05:48;;;;;;;1.90;0.60;;;;;;;13.96;52.19;100046.72;10265037;28;20132;-53
2021/05/23 08:10:49;;;;;;;1.67;0.50;;;;;;;14.10;50.79;100049.88;10284164;28;20061;-62
2021/05/23 08:15:51;;;;;;;1.30;0.75;;;;;;;14.23;50.58;100052.16;10282219;28;20057;-56
2021/05/23 08:20:55;;;;;;;2.33;0.77;;;;;;;14.31;51.24;100045.06;10272244;28;20150;-54
2021/05/23 08:25:59;;;;;;;3.40;0.75;;;;;;;14.76;49.81;100074.63;10270957;28;20050;-53
2021/05/23 08:31:01;;;;;;;1.20;0.50;;;;;;;14.92;48.94;100074.75;10281680;28;20315;-59
2021/05/23 08:36:03;;;;;;;3.45;0.82;;;;;;;14.79;49.05;100061.75;10283624;28;20085;-62
2021/05/23 08:41:05;;;;;;;1.95;0.80;;;;;;;15.10;48.13;100080.06;10279084;28;20046;-60
2021/05/23 08:46:06;;;;;;;1.85;0.75;;;;;;;15.42;47.82;100075.91;10281315;28;20185;-60
2021/05/23 08:51:09;;;;;;;1.40;0.73;;;;;;;15.51;47.74;100079.47;10280711;28;20515;-57
2021/05/23 08:56:11;;;;;;;2.75;0.68;;;;;;;15.29;47.38;100081.69;10279767;28;20650;-56
2021/05/23 09:01:28;;;;;;;1.13;0.68;;;;;;;15.62;47.22;100086.41;10281295;28;20078;-58
2021/05/23 09:06:35;;;;;;;0.85;0.50;;;;;;;15.61;46.31;100109.69;10281673;28;20058;-56
2021/05/23 09:11:39;;;;;;;2.47;0.65;;;;;;;15.86;46.17;100105.31;10275884;28;20393;-60
2021/05/23 09:16:41;;;;;;;3.50;1.45;;;;;;;15.67;46.73;100106.38;10258701;28;20062;-58
2021/05/23 09:21:42;;;;;;;1.67;1.00;;;;;;;16.09;46.49;100085.94;10273371;28;20105;-57
2021/05/23 09:26:48;;;;;;;2.15;0.77;;;;;;;16.71;44.50;100106.16;10275597;28;20050;-54
2021/05/23 09:31:57;;;;;;;1.50;1.02;;;;;;;16.35;44.09;100103.78;10260727;28;20491;-62
2021/05/23 09:37:00;;;;;;;1.27;0.95;;;;;;;15.88;44.93;100102.47;10275708;28;20483;-53
2021/05/23 09:42:06;;;;;;;1.45;0.82;;;;;;;16.30;44.31;100116.88;10278397;28;20057;-54
2021/05/23 09:47:10;;;;;;;1.77;0.70;;;;;;;16.29;44.04;100116.03;10288003;28;20054;-57
2021/05/23 09:52:17;;;;;;;3.10;1.00;;;;;;;16.50;43.79;100120.09;10288492;28;20121;-57
2021/05/23 09:57:21;;;;;;;1.75;0.55;;;;;;;16.32;42.75;100122.91;10284024;28;20052;-55
2021/05/23 10:02:22;;;;;;;2.92;0.98;;;;;;;15.69;44.64;100136.56;10271773;28;20054;-55
2021/05/23 10:07:44;;;;;;;2.38;0.95;;;;;;;15.86;44.48;100137.50;10291632;28;20080;-56
2021/05/23 10:12:46;;;;;;;3.78;0.93;;;;;;;16.64;43.38;100113.25;10290582;28;21239;-56
2021/05/23 10:17:47;;;;;;;4.35;0.75;;;;;;;17.38;42.33;100129.38;10274657;28;20054;-59
2021/05/23 10:22:50;;;;;;;1.55;0.55;;;;;;;17.16;42.05;100129.06;10278976;28;20519;-60
2021/05/23 10:27:53;;;;;;;2.35;1.15;;;;;;;16.64;43.32;100145.50;10292902;28;20824;-52
2021/05/23 10:32:55;;;;;;;1.80;0.67;;;;;;;16.04;43.59;100150.84;10291870;28;20107;-58
2021/05/23 10:38:07;;;;;;;0.95;0.55;;;;;;;15.86;48.14;100161.66;10288660;28;20062;-58
2021/05/23 10:43:27;;;;;;;2.00;0.98;;;;;;;16.25;48.57;100150.41;10294684;28;20217;-55
2021/05/23 10:48:28;;;;;;;3.13;1.10;;;;;;;16.13;46.84;100164.31;10291495;28;20050;-60
2021/05/23 10:53:36;;;;;;;2.50;0.95;;;;;;;15.77;47.76;100148.34;10290522;28;20137;-56
2021/05/23 10:58:37;;;;;;;3.00;0.90;;;;;;;15.51;48.30;100171.50;10292155;28;20077;-59
2021/05/23 11:03:38;;;;;;;1.77;1.10;;;;;;;15.73;50.85;100174.66;10295515;28;20053;-57
2021/05/23 11:08:48;;;;;;;2.67;0.80;;;;;;;17.14;48.21;100179.47;10296167;28;20077;-56
2021/05/23 11:13:50;;;;;;;2.22;0.93;;;;;;;16.93;46.88;100178.16;10271330;28;21492;-53
2021/05/23 11:19:02;;;;;;;1.27;0.47;;;;;;;15.59;51.82;100200.22;10274859;28;20868;-58
2021/05/23 11:24:04;;;;;;;1.75;0.57;;;;;;;15.49;55.18;100192.31;10286031;28;20059;-56
2021/05/23 11:29:06;;;;;;;1.50;0.80;;;;;;;16.19;53.77;100188.66;10291264;28;20069;-53
2021/05/23 11:34:08;;;;;;;1.10;0.95;;;;;;;17.28;49.17;100194.97;10283675;28;20069;-56
2021/05/23 11:39:13;;;;;;;1.98;0.73;;;;;;;17.71;46.72;100197.41;10299379;28;20057;-55
2021/05/23 11:44:15;;;;;;;1.70;1.08;;;;;;;17.94;46.98;100197.56;10283634;28;20459;-57
2021/05/23 11:49:21;;;;;;;2.70;0.68;;;;;;;16.72;48.30;100191.19;10286799;28;20058;-56
2021/05/23 11:54:22;;;;;;;2.42;1.30;;;;;;;16.29;49.40;100185.88;10282239;28;20046;-57
2021/05/23 11:59:29;;;;;;;2.65;1.40;;;;;;;15.96;52.50;100185.72;10283137;28;20090;-55
2021/05/23 12:04:31;;;;;;;1.58;0.77;;;;;;;16.11;51.64;100177.91;10282721;28;20137;-59
2021/05/23 12:09:32;;;;;;;1.35;0.50;;;;;;;16.59;48.46;100165.63;10282717;28;20604;-56
2021/05/23 12:14:37;;;;;;;2.20;0.40;;;;;;;16.83;46.84;100153.25;10270462;28;20112;-55
2021/05/23 12:19:52;;;;;;;1.30;0.60;;;;;;;17.01;47.05;100161.19;10282589;28;20106;-60
2021/05/23 12:24:55;;;;;;;1.48;0.98;;;;;;;17.02;43.92;100159.31;10284072;28;20076;-56
2021/05/23 12:30:06;;;;;;;1.33;0.60;;;;;;;17.08;44.58;100154.13;10280554;28;20580;-54
2021/05/23 12:35:10;;;;;;;1.25;0.40;;;;;;;17.58;42.29;100138.75;10279523;28;20092;-58
2021/05/23 12:40:17;;;;;;;1.05;0.65;;;;;;;18.23;40.69;100155.72;10282115;28;20966;-55
2021/05/23 12:45:19;;;;;;;0.80;0.38;;;;;;;18.54;41.04;100141.41;10279591;28;20054;-59
2021/05/23 12:50:34;;;;;;;1.40;0.50;;;;;;;18.47;40.50;100143.13;10279981;28;20058;-58
2021/05/23 12:55:40;;;;;;;2.20;0.57;;;;;;;17.70;42.51;100151.81;10280866;28;20259;-55
2021/05/23 13:00:43;;;;;;;2.20;0.60;;;;;;;17.05;45.25;100175.94;10279233;28;20129;-58
2021/05/23 13:05:54;;;;;;;1.58;0.50;;;;;;;16.81;46.40;100159.78;10280928;28;20512;-60
2021/05/23 13:10:56;;;;;;;1.10;0.98;;;;;;;17.62;45.19;100196.59;10264782;28;20164;-60
2021/05/23 13:16:05;;;;;;;1.83;0.52;;;;;;;17.22;43.66;100187.56;10278185;28;20065;-55
2021/05/23 13:21:19;;;;;;;0.85;0.30;;;;;;;17.21;43.88;100198.50;10265613;28;20042;-55
2021/05/23 13:26:23;;;;;;;1.00;0.40;;;;;;;17.51;42.31;100179.97;10278192;28;20046;-58
2021/05/23 13:31:24;;;;;;;1.87;0.60;;;;;;;17.65;42.22;100160.41;10279117;28;20065;-56
2021/05/23 13:36:26;;;;;;;0.82;0.35;;;;;;;17.41;43.30;100164.00;10281331;28;20360;-53
2021/05/23 13:41:28;;;;;;;1.17;0.55;;;;;;;17.24;43.18;100166.72;10280583;28;20058;-54
2021/05/23 13:46:29;;;;;;;1.08;0.60;;;;;;;17.14;42.86;100168.72;10272627;28;20151;-54
2021/05/23 13:51:32;;;;;;;2.20;0.30;;;;;;;17.10;42.02;100167.41;10274459;28;20078;-54
2021/05/23 13:56:34;;;;;;;1.70;0.40;;;;;;;17.05;41.26;100164.38;10275573;28;20105;-54
2021/05/23 14:01:46;;;;;;;1.23;0.40;;;;;;;17.22;41.45;100138.28;10276275;28;20511;-53
2021/05/23 14:06:49;;;;;;;1.75;0.35;;;;;;;17.51;40.18;100135.06;10276793;28;20101;-56
2021/05/23 14:11:51;;;;;;;0.60;0.30;;;;;;;17.79;40.21;100134.63;10277027;28;20105;-58
2021/05/23 14:16:52;;;;;;;1.60;0.40;;;;;;;18.07;41.04;100147.69;10275305;28;20455;-54
2021/05/23 14:21:54;;;;;;;1.13;0.55;;;;;;;18.05;41.27;100144.34;10276929;28;20198;-54
2021/05/23 14:27:11;;;;;;;1.48;0.57;;;;;;;17.70;42.84;100146.44;10263221;28;20061;-56
2021/05/23 14:32:12;;;;;;;0.73;0.40;;;;;;;17.43;42.20;100129.69;10258339;28;20543;-57
2021/05/23 14:37:14;;;;;;;1.08;0.57;;;;;;;17.78;42.08;100139.19;10275838;28;20078;-55
2021/05/23 14:42:15;;;;;;;1.00;0.47;;;;;;;17.85;41.39;100128.59;10267425;28;20105;-58
2021/05/23 14:47:17;;;;;;;2.00;0.30;;;;;;;17.48;40.98;100113.88;10277216;28;20124;-57
2021/05/23 14:52:20;;;;;;;0.50;0.28;;;;;;;17.40;41.67;100147.03;10275271;28;20058;-56
2021/05/23 14:57:22;;;;;;;1.70;0.40;;;;;;;17.41;42.04;100137.09;10275795;28;20050;-58
2021/05/23 15:02:24;;;;;;;2.05;0.50;;;;;;;17.43;42.20;100135.06;10275887;28;20128;-54
2021/05/23 15:07:26;;;;;;;1.20;0.50;;;;;;;17.57;41.27;100137.06;10282174;28;20050;-56
2021/05/23 15:12:27;;;;;;;1.13;0.38;;;;;;;17.48;41.20;100132.72;10297000;28;20047;-57
2021/05/23 15:17:29;;;;;;;1.67;0.38;;;;;;;17.43;41.23;100129.69;10283621;28;20126;-57
2021/05/23 15:22:31;;;;;;;1.70;0.50;;;;;;;17.58;40.22;100125.31;10284245;28;20747;-56
2021/05/23 15:32:56;;;;;;;0.60;0.30;;;;;;;17.28;39.86;100127.72;10279581;28;20160;-56
2021/05/23 15:37:58;;;;;;;;;;;;;;;17.17;39.59;100106.53;10282670;28;20077;-58
2021/05/23 15:43:00;;;;;;;0.93;0.47;;;;;;;17.13;39.10;100089.91;10276151;28;20064;-56
2021/05/23 15:48:03;;;;;;;1.17;0.40;;;;;;;17.31;38.73;100105.84;10277824;28;20069;-57
2021/05/23 15:53:05;;;;;;;1.55;0.57;;;;;;;17.19;39.44;100119.81;10279044;28;20153;-55
2021/05/23 15:58:06;;;;;;;1.02;0.40;;;;;;;17.25;39.76;100117.28;10263711;28;20062;-56
2021/05/23 16:03:08;;;;;;;1.55;0.50;;;;;;;17.11;39.86;100126.03;10277996;28;20145;-58
2021/05/23 16:08:09;;;;;;;2.67;1.10;;;;;;;17.04;41.02;100109.75;10280045;28;20665;-57
2021/05/23 16:13:11;;;;;;;1.10;0.60;;;;;;;17.29;40.09;100113.25;10275126;28;20129;-55
2021/05/23 16:18:12;;;;;;;1.17;0.70;;;;;;;17.41;40.11;100110.19;10271875;28;21661;-55
2021/05/23 16:23:14;;;;;;;2.30;1.48;;;;;;;17.45;39.89;100119.63;10260803;28;20081;-55
2021/05/23 16:28:15;;;;;;;2.22;0.70;;;;;;;17.20;39.78;100116.94;10257242;28;20058;-56
2021/05/23 16:33:17;;;;;;;2.08;0.65;;;;;;;17.07;40.01;100106.72;10270312;28;20143;-56
2021/05/23 16:38:19;;;;;;;1.85;0.60;;;;;;;17.03;40.78;100107.22;10234209;28;20096;-58
2021/05/23 16:43:21;;;;;;;0.85;0.45;;;;;;;16.98;40.21;100098.81;10272696;28;20132;-56
2021/05/23 16:48:23;;;;;;;1.25;0.60;;;;;;;16.86;40.52;100101.81;10273643;28;20448;-56
2021/05/23 16:53:24;;;;;;;1.25;0.47;;;;;;;16.81;40.74;100108.72;10272672;28;20085;-57
2021/05/23 16:58:26;;;;;;;4.32;3.30;;;;;;;16.60;41.09;100108.22;10277982;28;20058;-58
2021/05/23 17:03:28;;;;;;;3.80;2.83;;;;;;;16.56;41.42;100101.47;10266809;28;20082;-56
2021/05/23 17:08:30;;;;;;;2.28;1.00;;;;;;;16.55;41.84;100094.41;10276703;28;20591;-57
2021/05/23 17:13:32;;;;;;;2.60;0.82;;;;;;;16.58;41.37;100095.94;10273797;28;20054;-55
2021/05/23 17:18:35;;;;;;;;;;;;;;;16.63;40.96;100108.88;10274652;28;20161;-55
2021/05/23 17:23:37;;;;;;;1.70;0.47;;;;;;;16.66;40.49;100103.16;10269838;23;19976;-67
2021/05/23 17:28:38;;;;;;;3.22;1.25;;;;;;;16.77;40.67;100103.66;10239738;28;20078;-65
2021/05/23 17:33:40;;;;;;;1.15;0.70;;;;;;;16.61;41.00;100117.94;10232761;28;20182;-65
2021/05/23 17:38:42;;;;;;;2.20;0.70;;;;;;;16.44;41.60;100122.44;10234659;28;20046;-55
2021/05/23 17:43:43;;;;;;;3.67;2.42;;;;;;;16.47;41.52;100113.22;10235386;28;20081;-56
2021/05/23 17:48:45;;;;;;;1.63;1.30;;;;;;;16.53;41.14;100115.25;10235535;28;20121;-56
2021/05/23 17:53:46;;;;;;;2.67;1.20;;;;;;;16.48;41.97;100114.88;10233475;28;20117;-56
2021/05/23 17:58:48;;;;;;;2.20;1.52;;;;;;;16.42;40.88;100115.53;10232860;28;20137;-57
2021/05/23 18:03:50;;;;;;;1.42;0.40;;;;;;;16.37;41.26;100124.09;10232044;28;20074;-57
2021/05/23 18:08:53;;;;;;;1.87;0.57;;;;;;;16.41;41.94;100119.25;10235314;28;20046;-59
2021/05/23 18:13:54;;;;;;;1.00;0.50;;;;;;;16.33;42.12;100116.53;10232772;28;20039;-59
2021/05/23 18:18:56;;;;;;;2.25;0.95;;;;;;;16.21;42.22;100130.28;10236049;28;20066;-61
2021/05/23 18:24:01;;;;;;;1.40;0.55;;;;;;;16.15;42.13;100117.50;10224491;28;20553;-61
2021/05/23 18:29:03;;;;;;;1.75;0.50;;;;;;;16.15;42.62;100119.34;10225395;28;20046;-59
2021/05/23 18:34:04;;;;;;;1.70;0.60;;;;;;;16.21;42.63;100118.69;10248642;28;20050;-62
2021/05/23 18:39:12;;;;;;;2.00;0.80;;;;;;;16.17;42.71;100120.00;10254140;28;20167;-63
2021/05/23 18:44:13;;;;;;;1.65;0.60;;;;;;;16.16;42.77;100132.59;10233186;28;20051;-58
2021/05/23 18:49:15;;;;;;;1.10;0.68;;;;;;;16.03;42.85;100129.53;10251419;28;20101;-60
2021/05/23 18:54:17;;;;;;;1.40;0.80;;;;;;;16.00;43.16;100125.34;10255954;28;20713;-63
2021/05/23 18:59:18;;;;;;;1.83;0.47;;;;;;;15.89;43.06;100126.47;10249386;28;20058;-65
2021/05/23 19:04:20;;;;;;;1.35;0.40;;;;;;;15.85;43.33;100135.84;10247443;28;20496;-62
2021/05/23 19:09:22;;;;;;;1.67;0.70;;;;;;;15.74;43.66;100133.41;10255228;28;20047;-61
2021/05/23 19:14:23;;;;;;;1.00;0.60;;;;;;;15.65;43.72;100134.38;10248659;28;20540;-62
2021/05/23 19:19:25;;;;;;;2.03;0.80;;;;;;;15.60;44.33;100142.91;10244167;28;20059;-61
2021/05/23 19:24:26;;;;;;;1.73;1.05;;;;;;;15.59;44.57;100151.09;10238870;28;20055;-61
2021/05/23 19:29:27;;;;;;;3.25;1.48;;;;;;;15.53;44.51;100148.03;10234274;28;20118;-61
2021/05/23 19:34:29;;;;;;;3.28;1.10;;;;;;;15.49;44.75;100154.75;10234490;28;20125;-62
2021/05/23 19:39:30;;;;;;;0.70;0.68;;;;;;;15.40;44.95;100163.72;10234654;28;20496;-62
2021/05/23 19:44:32;;;;;;;1.45;0.68;;;;;;;15.34;45.94;100169.72;10227124;28;20415;-61
2021/05/23 19:49:34;;;;;;;2.58;0.70;;;;;;;15.23;46.05;100172.66;10233875;28;20083;-62
2021/05/23 19:54:35;;;;;;;0.88;0.60;;;;;;;15.12;46.14;100174.59;10237255;28;20055;-61
2021/05/23 19:59:37;;;;;;;1.90;0.80;;;;;;;15.07;46.49;100182.22;10243681;28;20059;-62
2021/05/23 20:04:39;;;;;;;2.15;1.40;;;;;;;15.04;46.94;100190.56;10236219;28;20062;-63
2021/05/23 20:09:40;;;;;;;1.92;1.05;;;;;;;14.98;47.48;100197.41;10222073;28;20054;-61
2021/05/23 20:14:43;;;;;;;1.83;1.10;;;;;;;14.97;47.63;100189.53;10237144;28;20643;-61
2021/05/23 20:19:46;;;;;;;2.50;1.20;;;;;;;14.90;48.25;100194.66;10251276;28;20459;-60
2021/05/23 20:24:48;;;;;;;2.83;1.92;;;;;;;14.84;48.49;100188.06;10244150;28;20069;-61
2021/05/23 20:29:49;;;;;;;2.95;1.23;;;;;;;14.78;48.49;100191.34;10254824;28;20059;-62
2021/05/23 20:34:51;;;;;;;3.15;1.30;;;;;;;14.69;49.24;100197.63;10252619;28;20078;-62
2021/05/23 20:39:53;;;;;;;2.80;1.23;;;;;;;14.63;50.16;100192.88;10251580;28;20047;-62
2021/05/23 20:44:54;;;;;;;1.23;0.90;;;;;;;14.56;50.12;100197.13;10242653;28;20046;-60
2021/05/23 20:49:56;;;;;;;3.20;1.50;;;;;;;14.46;50.10;100199.88;10237550;28;20652;-59
2021/05/23 20:54:57;;;;;;;2.95;1.30;;;;;;;14.41;50.28;100194.09;10237091;28;20459;-62
2021/05/23 20:59:59;;;;;;;2.40;1.38;;;;;;;14.31;50.58;100188.81;10259050;28;20086;-63
2021/05/23 21:05:00;;;;;;;2.55;1.30;;;;;;;14.28;50.43;100189.13;10259370;28;20050;-61
2021/05/23 21:10:03;;;;;;;1.75;1.00;;;;;;;14.18;50.78;100191.00;10252791;28;20046;-61
2021/05/23 21:15:07;;;;;;;1.98;1.00;;;;;;;14.12;51.05;100189.75;10268884;28;20046;-60
2021/05/23 21:20:11;;;;;;;2.15;0.77;;;;;;;14.09;51.22;100185.53;10254020;28;20164;-60
2021/05/23 21:25:13;;;;;;;;;;;;;;;14.03;51.28;100191.47;10257058;28;20455;-60
2021/05/23 21:30:15;;;;;;;1.52;0.70;;;;;;;13.99;51.60;100184.75;10253089;28;20013;-60
2021/05/23 21:35:17;;;;;;;2.83;0.88;;;;;;;13.94;51.86;100192.34;10255282;28;20050;-60
2021/05/23 21:40:18;;;;;;;2.17;0.98;;;;;;;13.87;52.04;100186.75;10263826;28;20054;-60
2021/05/23 21:45:20;;;;;;;4.80;1.15;;;;;;;13.77;52.46;100186.78;10265648;28;20113;-61
2021/05/23 21:50:21;;;;;;;2.10;0.80;;;;;;;13.72;53.05;100182.84;10255059;28;20054;-61
2021/05/23 21:55:22;;;;;;;2.17;1.10;;;;;;;13.65;53.60;100177.25;10255061;28;20050;-61
2021/05/23 22:00:26;;;;;;;2.33;1.30;;;;;;;13.60;53.63;100176.84;10269687;28;20050;-61
2021/05/23 22:05:29;;;;;;;2.83;0.80;;;;;;;13.56;54.00;100170.09;10264132;28;20047;-60
2021/05/23 22:10:33;;;;;;;4.28;1.10;;;;;;;13.48;54.06;100172.66;10257890;28;20402;-61
2021/05/23 22:15:34;;;;;;;2.80;0.85;;;;;;;13.43;54.81;100157.88;10251766;28;20066;-60
2021/05/23 22:20:43;;;;;;;2.47;1.20;;;;;;;13.41;54.82;100164.38;10253636;28;20045;-61
2021/05/23 22:25:45;;;;;;;1.80;0.95;;;;;;;13.37;55.26;100152.28;10251138;28;20046;-60
2021/05/23 22:30:47;;;;;;;2.63;1.13;;;;;;;13.33;55.21;100156.19;10251766;28;20046;-60
2021/05/23 22:35:48;;;;;;;2.17;1.15;;;;;;;13.26;55.57;100154.09;10248444;28;20050;-60
2021/05/23 22:40:50;;;;;;;1.90;1.40;;;;;;;13.21;55.92;100153.69;10258272;28;21412;-60
2021/05/23 22:45:52;;;;;;;3.28;2.03;;;;;;;13.13;56.47;100148.19;10247669;28;20600;-61
2021/05/23 22:50:53;;;;;;;1.98;1.48;;;;;;;13.04;56.64;100139.19;10252000;28;20043;-61
2021/05/23 22:55:56;;;;;;;4.20;1.80;;;;;;;13.01;56.75;100136.81;10254452;28;20049;-61
2021/05/23 23:01:01;;;;;;;3.92;2.30;;;;;;;12.95;57.20;100134.72;10255235;28;20145;-60
2021/05/23 23:06:03;;;;;;;3.78;1.77;;;;;;;12.88;57.54;100131.78;10258919;28;20090;-61
2021/05/23 23:11:05;;;;;;;4.60;1.77;;;;;;;12.82;57.44;100126.13;10250752;28;20074;-61
2021/05/23 23:16:08;;;;;;;3.08;1.90;;;;;;;12.76;58.02;100132.91;10252806;28;20078;-60
2021/05/23 23:21:10;;;;;;;3.53;2.33;;;;;;;12.74;58.28;100132.19;10247812;28;20058;-60